WJA229 CYWG-CYYC
Flight info
| Callsign | WJA229 |
|---|---|
| Flight time | 1h 48m |
| Altitude | 34000 |
| Route | LIVBI DCT DUKPO DCT FAREN DCT GUDOG DCT PIKLA DCT BIRKO BIRKO6 |
| Aircraft | B738/M-SDE2E3FGHIRWXY/LB1 |
Departure
| Time | 2026-05-01 13:09 |
|---|---|
| Airport | Winnipeg / James Armstrong Richardson International Airport (CYWG) |
Arrival
| Time | 2026-05-01 14:57 |
|---|---|
| Airport | Calgary International Airport (CYYC) |
| Time | Latitude | Longitude | Altitude | Speed | Heading |
|---|---|---|---|---|---|
| 2026-05-01 12:44 | 49.90673 | -97.22618 | 785 ft | 0 kts | 167° |
| 2026-05-01 12:59 | 49.90678 | -97.22620 | 785 ft | 3 kts | 167° |
| 2026-05-01 12:59 | 49.90704 | -97.22629 | 785 ft | 4 kts | 167° |
| 2026-05-01 12:59 | 49.90742 | -97.22642 | 785 ft | 0 kts | 167° |
| 2026-05-01 13:07 | 49.89551 | -97.23844 | 785 ft | 19 kts | 277° |
| 2026-05-01 13:07 | 49.89566 | -97.24033 | 786 ft | 13 kts | 277° |
| 2026-05-01 13:07 | 49.89587 | -97.24168 | 787 ft | 13 kts | 319° |
| 2026-05-01 13:08 | 49.89684 | -97.24157 | 787 ft | 26 kts | 8° |
| 2026-05-01 13:08 | 49.90139 | -97.24057 | 784 ft | 104 kts | 8° |
| 2026-05-01 13:08 | 49.91064 | -97.23848 | 804 ft | 165 kts | 8° |
| 2026-05-01 13:08 | 49.92286 | -97.23625 | 1357 ft | 181 kts | 357° |
| 2026-05-01 13:09 | 49.93511 | -97.24171 | 2144 ft | 190 kts | 326° |
| 2026-05-01 13:09 | 49.94413 | -97.25635 | 3018 ft | 187 kts | 297° |
| 2026-05-01 13:09 | 49.94759 | -97.27586 | 3653 ft | 200 kts | 269° |
| 2026-05-01 13:09 | 49.94624 | -97.29858 | 3875 ft | 224 kts | 264° |
| 2026-05-01 13:10 | 49.94443 | -97.32329 | 4328 ft | 234 kts | 264° |
| 2026-05-01 13:10 | 49.94264 | -97.34874 | 4924 ft | 238 kts | 265° |
| 2026-05-01 13:10 | 49.94093 | -97.37452 | 5518 ft | 242 kts | 265° |
| 2026-05-01 13:10 | 49.93929 | -97.40085 | 6099 ft | 249 kts | 266° |
| 2026-05-01 13:11 | 49.93764 | -97.42866 | 6508 ft | 266 kts | 266° |
| 2026-05-01 13:11 | 49.93597 | -97.45752 | 7257 ft | 270 kts | 266° |
| 2026-05-01 13:11 | 49.93430 | -97.48676 | 8065 ft | 273 kts | 267° |
| 2026-05-01 13:11 | 49.93265 | -97.51634 | 8820 ft | 278 kts | 267° |
| 2026-05-01 13:12 | 49.93098 | -97.54642 | 9573 ft | 282 kts | 267° |
| 2026-05-01 13:12 | 49.92928 | -97.57691 | 10307 ft | 287 kts | 268° |
| 2026-05-01 13:12 | 49.92754 | -97.60883 | 10572 ft | 309 kts | 268° |
| 2026-05-01 13:12 | 49.92565 | -97.64335 | 10775 ft | 332 kts | 268° |
| 2026-05-01 13:13 | 49.92361 | -97.67990 | 11234 ft | 345 kts | 268° |
| 2026-05-01 13:13 | 49.92149 | -97.71720 | 11930 ft | 348 kts | 268° |
| 2026-05-01 13:13 | 49.91981 | -97.75488 | 12646 ft | 351 kts | 273° |
| 2026-05-01 13:13 | 49.92209 | -97.79199 | 13323 ft | 351 kts | 283° |
| 2026-05-01 13:14 | 49.92685 | -97.82982 | 14008 ft | 354 kts | 284° |
| 2026-05-01 13:14 | 49.93173 | -97.86700 | 14651 ft | 358 kts | 284° |
| 2026-05-01 13:14 | 49.93673 | -97.90509 | 15300 ft | 362 kts | 284° |
| 2026-05-01 13:14 | 49.94173 | -97.94361 | 15945 ft | 366 kts | 284° |
| 2026-05-01 13:15 | 49.94670 | -97.98253 | 16563 ft | 370 kts | 284° |
| 2026-05-01 13:15 | 49.95168 | -98.02191 | 17167 ft | 374 kts | 284° |
| 2026-05-01 13:15 | 49.95666 | -98.06176 | 17732 ft | 378 kts | 284° |
| 2026-05-01 13:15 | 49.96165 | -98.10201 | 18302 ft | 382 kts | 284° |
| 2026-05-01 13:16 | 49.96668 | -98.14274 | 18873 ft | 385 kts | 284° |
| 2026-05-01 13:16 | 49.97173 | -98.18382 | 19448 ft | 388 kts | 284° |
| 2026-05-01 13:16 | 49.97680 | -98.22526 | 20001 ft | 391 kts | 284° |
| 2026-05-01 13:17 | 49.99216 | -98.35148 | 21545 ft | 401 kts | 284° |
| 2026-05-01 13:17 | 49.99734 | -98.39427 | 22036 ft | 404 kts | 284° |
| 2026-05-01 13:18 | 50.00768 | -98.48020 | 22958 ft | 410 kts | 284° |
| 2026-05-01 13:18 | 50.01294 | -98.52415 | 23391 ft | 413 kts | 284° |
| 2026-05-01 13:18 | 50.01822 | -98.56838 | 23833 ft | 416 kts | 284° |
| 2026-05-01 13:18 | 50.02350 | -98.61276 | 24253 ft | 419 kts | 284° |
| 2026-05-01 13:19 | 50.02881 | -98.65755 | 24661 ft | 422 kts | 284° |
| 2026-05-01 13:19 | 50.03414 | -98.70270 | 25065 ft | 425 kts | 284° |
| 2026-05-01 13:19 | 50.04476 | -98.79299 | 25833 ft | 430 kts | 285° |
| 2026-05-01 13:20 | 50.05011 | -98.83891 | 26178 ft | 433 kts | 285° |
| 2026-05-01 13:20 | 50.05556 | -98.88580 | 26540 ft | 435 kts | 285° |
| 2026-05-01 13:20 | 50.06089 | -98.93166 | 26890 ft | 437 kts | 285° |
| 2026-05-01 13:21 | 50.07174 | -99.02546 | 27524 ft | 443 kts | 286° |
| 2026-05-01 13:21 | 50.07717 | -99.07278 | 27858 ft | 445 kts | 287° |
| 2026-05-01 13:21 | 50.08264 | -99.12055 | 28167 ft | 448 kts | 287° |
| 2026-05-01 13:21 | 50.08810 | -99.16840 | 28447 ft | 451 kts | 287° |
| 2026-05-01 13:22 | 50.09355 | -99.21657 | 28744 ft | 452 kts | 288° |
| 2026-05-01 13:22 | 50.09900 | -99.26492 | 29091 ft | 453 kts | 288° |
| 2026-05-01 13:22 | 50.10440 | -99.31323 | 29521 ft | 451 kts | 288° |
| 2026-05-01 13:22 | 50.10977 | -99.36138 | 29926 ft | 450 kts | 289° |
| 2026-05-01 13:23 | 50.11512 | -99.40943 | 30225 ft | 451 kts | 290° |
| 2026-05-01 13:23 | 50.12051 | -99.45768 | 30565 ft | 451 kts | 290° |
| 2026-05-01 13:23 | 50.12572 | -99.50495 | 30995 ft | 448 kts | 290° |
| 2026-05-01 13:23 | 50.13100 | -99.55284 | 31387 ft | 448 kts | 290° |
| 2026-05-01 13:24 | 50.13627 | -99.60062 | 31757 ft | 446 kts | 290° |
| 2026-05-01 13:24 | 50.14179 | -99.64819 | 32133 ft | 446 kts | 289° |
| 2026-05-01 13:24 | 50.14520 | -99.67971 | 32376 ft | 445 kts | 289° |
| 2026-05-01 13:25 | 50.15523 | -99.77472 | 33071 ft | 442 kts | 289° |
| 2026-05-01 13:25 | 50.16025 | -99.82168 | 33395 ft | 441 kts | 289° |
| 2026-05-01 13:25 | 50.16539 | -99.86914 | 33692 ft | 440 kts | 290° |
| 2026-05-01 13:25 | 50.17199 | -99.91526 | 34003 ft | 433 kts | 294° |
| 2026-05-01 13:26 | 50.17991 | -99.96052 | 34184 ft | 433 kts | 295° |
| 2026-05-01 13:26 | 50.19698 | -100.05124 | 34169 ft | 436 kts | 295° |
| 2026-05-01 13:27 | 50.21374 | -100.14144 | 34163 ft | 429 kts | 295° |
| 2026-05-01 13:27 | 50.23798 | -100.27599 | 34182 ft | 429 kts | 295° |
| 2026-05-01 13:28 | 50.26182 | -100.41064 | 34171 ft | 431 kts | 295° |
| 2026-05-01 13:29 | 50.29353 | -100.59158 | 34167 ft | 432 kts | 295° |
| 2026-05-01 13:31 | 50.34067 | -100.86403 | 34159 ft | 432 kts | 296° |
| 2026-05-01 13:32 | 50.37936 | -101.09072 | 34158 ft | 431 kts | 296° |
| 2026-05-01 13:33 | 50.41750 | -101.31711 | 34153 ft | 431 kts | 296° |
| 2026-05-01 13:34 | 50.44777 | -101.49897 | 34152 ft | 431 kts | 296° |
| 2026-05-01 13:35 | 50.47027 | -101.63551 | 34153 ft | 431 kts | 296° |
| 2026-05-01 13:36 | 50.49261 | -101.77209 | 34138 ft | 432 kts | 296° |
| 2026-05-01 13:36 | 50.51485 | -101.90914 | 34136 ft | 432 kts | 296° |
| 2026-05-01 13:37 | 50.52963 | -102.00085 | 34144 ft | 432 kts | 296° |
| 2026-05-01 13:37 | 50.54426 | -102.09209 | 34134 ft | 433 kts | 296° |
| 2026-05-01 13:38 | 50.56621 | -102.23007 | 34119 ft | 434 kts | 296° |
| 2026-05-01 13:39 | 50.58077 | -102.32221 | 34125 ft | 433 kts | 296° |
| 2026-05-01 13:39 | 50.59522 | -102.41429 | 34115 ft | 433 kts | 296° |
| 2026-05-01 13:40 | 50.60960 | -102.50640 | 34119 ft | 432 kts | 295° |
| 2026-05-01 13:40 | 50.62388 | -102.59828 | 34113 ft | 432 kts | 295° |
| 2026-05-01 13:41 | 50.63807 | -102.69014 | 34110 ft | 431 kts | 295° |
| 2026-05-01 13:41 | 50.65215 | -102.78182 | 34111 ft | 429 kts | 295° |
| 2026-05-01 13:42 | 50.66602 | -102.87260 | 34105 ft | 428 kts | 295° |
| 2026-05-01 13:42 | 50.67995 | -102.96436 | 34113 ft | 427 kts | 294° |
| 2026-05-01 13:43 | 50.69364 | -103.05493 | 34109 ft | 427 kts | 294° |
| 2026-05-01 13:43 | 50.70729 | -103.14589 | 34114 ft | 426 kts | 294° |
| 2026-05-01 13:44 | 50.72088 | -103.23694 | 34112 ft | 426 kts | 294° |
| 2026-05-01 13:44 | 50.73440 | -103.32803 | 34111 ft | 426 kts | 294° |
| 2026-05-01 13:45 | 50.74786 | -103.41920 | 34113 ft | 427 kts | 294° |
| 2026-05-01 13:45 | 50.76126 | -103.51057 | 34111 ft | 427 kts | 293° |
| 2026-05-01 13:46 | 50.77460 | -103.60202 | 34110 ft | 427 kts | 293° |
| 2026-05-01 13:46 | 50.78786 | -103.69354 | 34116 ft | 427 kts | 293° |
| 2026-05-01 13:47 | 50.80098 | -103.78459 | 34119 ft | 427 kts | 293° |
| 2026-05-01 13:47 | 50.81411 | -103.87628 | 34110 ft | 427 kts | 293° |
| 2026-05-01 13:48 | 50.82716 | -103.96794 | 34119 ft | 427 kts | 293° |
| 2026-05-01 13:48 | 50.84018 | -104.05988 | 34127 ft | 428 kts | 292° |
| 2026-05-01 13:49 | 50.85309 | -104.15183 | 34120 ft | 428 kts | 292° |
| 2026-05-01 13:49 | 50.86590 | -104.24323 | 34118 ft | 428 kts | 291° |
| 2026-05-01 13:50 | 50.87875 | -104.33580 | 34124 ft | 427 kts | 291° |
| 2026-05-01 13:50 | 50.89135 | -104.42714 | 34118 ft | 427 kts | 291° |
| 2026-05-01 13:51 | 50.90395 | -104.51911 | 34119 ft | 427 kts | 291° |
| 2026-05-01 13:51 | 50.91648 | -104.61102 | 34117 ft | 426 kts | 291° |
| 2026-05-01 13:52 | 50.92892 | -104.70281 | 34122 ft | 426 kts | 291° |
| 2026-05-01 13:52 | 50.94129 | -104.79466 | 34109 ft | 426 kts | 291° |
| 2026-05-01 13:53 | 50.95356 | -104.88635 | 34110 ft | 425 kts | 290° |
| 2026-05-01 13:53 | 50.97183 | -105.02409 | 34112 ft | 425 kts | 290° |
| 2026-05-01 13:54 | 50.98391 | -105.11582 | 34110 ft | 425 kts | 290° |
| 2026-05-01 13:54 | 50.99585 | -105.20711 | 34111 ft | 425 kts | 290° |
| 2026-05-01 13:55 | 51.00769 | -105.29837 | 34111 ft | 425 kts | 290° |
| 2026-05-01 13:55 | 51.01956 | -105.39040 | 34110 ft | 424 kts | 290° |
| 2026-05-01 13:56 | 51.03134 | -105.48209 | 34111 ft | 424 kts | 289° |
| 2026-05-01 13:56 | 51.04267 | -105.57104 | 34106 ft | 425 kts | 289° |
| 2026-05-01 13:57 | 51.05238 | -105.64765 | 34089 ft | 425 kts | 289° |
| 2026-05-01 13:57 | 51.06572 | -105.75373 | 34096 ft | 425 kts | 289° |
| 2026-05-01 13:58 | 51.07708 | -105.84475 | 34098 ft | 425 kts | 289° |
| 2026-05-01 13:58 | 51.08853 | -105.93706 | 34084 ft | 425 kts | 289° |
| 2026-05-01 13:59 | 51.09991 | -106.02944 | 34084 ft | 425 kts | 288° |
| 2026-05-01 13:59 | 51.11109 | -106.12093 | 34084 ft | 425 kts | 288° |
| 2026-05-01 14:00 | 51.12232 | -106.21324 | 34079 ft | 425 kts | 288° |
| 2026-05-01 14:00 | 51.13347 | -106.30566 | 34080 ft | 424 kts | 288° |
| 2026-05-01 14:01 | 51.14451 | -106.39774 | 34083 ft | 424 kts | 287° |
| 2026-05-01 14:01 | 51.15551 | -106.49015 | 34083 ft | 424 kts | 287° |
| 2026-05-01 14:02 | 51.16636 | -106.58198 | 34085 ft | 424 kts | 287° |
| 2026-05-01 14:02 | 51.17717 | -106.67404 | 34076 ft | 425 kts | 287° |
| 2026-05-01 14:03 | 51.18795 | -106.76667 | 34072 ft | 425 kts | 287° |
| 2026-05-01 14:03 | 51.19863 | -106.85918 | 34073 ft | 424 kts | 287° |
| 2026-05-01 14:04 | 51.20926 | -106.95182 | 34076 ft | 425 kts | 286° |
| 2026-05-01 14:04 | 51.21804 | -107.02884 | 34072 ft | 425 kts | 286° |
| 2026-05-01 14:05 | 51.23032 | -107.13736 | 34072 ft | 425 kts | 286° |
| 2026-05-01 14:05 | 51.24068 | -107.22972 | 34072 ft | 425 kts | 285° |
| 2026-05-01 14:06 | 51.25106 | -107.32280 | 34076 ft | 425 kts | 285° |
| 2026-05-01 14:06 | 51.26134 | -107.41579 | 34073 ft | 426 kts | 285° |
| 2026-05-01 14:07 | 51.27154 | -107.50888 | 34077 ft | 425 kts | 285° |
| 2026-05-01 14:08 | 51.28671 | -107.64851 | 34064 ft | 425 kts | 285° |
| 2026-05-01 14:08 | 51.29672 | -107.74146 | 34064 ft | 424 kts | 285° |
| 2026-05-01 14:09 | 51.30664 | -107.83450 | 34066 ft | 424 kts | 284° |
| 2026-05-01 14:09 | 51.31648 | -107.92737 | 34063 ft | 423 kts | 284° |
| 2026-05-01 14:10 | 51.32624 | -108.02014 | 34059 ft | 423 kts | 284° |
| 2026-05-01 14:10 | 51.33428 | -108.09713 | 34057 ft | 422 kts | 284° |
| 2026-05-01 14:11 | 51.34541 | -108.20467 | 34054 ft | 421 kts | 283° |
| 2026-05-01 14:11 | 51.35961 | -108.34336 | 34054 ft | 421 kts | 283° |
| 2026-05-01 14:12 | 51.36744 | -108.42047 | 34060 ft | 421 kts | 283° |
| 2026-05-01 14:12 | 51.37673 | -108.51285 | 34059 ft | 421 kts | 283° |
| 2026-05-01 14:13 | 51.38599 | -108.60553 | 34055 ft | 421 kts | 283° |
| 2026-05-01 14:13 | 51.39516 | -108.69816 | 34057 ft | 421 kts | 283° |
| 2026-05-01 14:14 | 51.40428 | -108.79097 | 34056 ft | 422 kts | 283° |
| 2026-05-01 14:14 | 51.41332 | -108.88381 | 34055 ft | 422 kts | 283° |
| 2026-05-01 14:15 | 51.42224 | -108.97623 | 34055 ft | 422 kts | 283° |
| 2026-05-01 14:15 | 51.43114 | -109.06927 | 34059 ft | 422 kts | 282° |
| 2026-05-01 14:16 | 51.43997 | -109.16228 | 34056 ft | 422 kts | 282° |
| 2026-05-01 14:16 | 51.44873 | -109.25535 | 34056 ft | 422 kts | 282° |
| 2026-05-01 14:17 | 51.45737 | -109.34818 | 34054 ft | 421 kts | 282° |
| 2026-05-01 14:17 | 51.46596 | -109.44113 | 34055 ft | 421 kts | 282° |
| 2026-05-01 14:18 | 51.47441 | -109.53327 | 34054 ft | 420 kts | 281° |
| 2026-05-01 14:18 | 51.48146 | -109.61087 | 34058 ft | 419 kts | 281° |
| 2026-05-01 14:19 | 51.49113 | -109.71840 | 34054 ft | 418 kts | 281° |
| 2026-05-01 14:19 | 51.49936 | -109.81072 | 34055 ft | 417 kts | 281° |
| 2026-05-01 14:20 | 51.51152 | -109.94859 | 34056 ft | 415 kts | 281° |
| 2026-05-01 14:21 | 51.51917 | -110.04040 | 34056 ft | 415 kts | 279° |
| 2026-05-01 14:21 | 51.52514 | -110.13206 | 34054 ft | 415 kts | 278° |
| 2026-05-01 14:22 | 51.53370 | -110.27030 | 34036 ft | 415 kts | 278° |
| 2026-05-01 14:22 | 51.53949 | -110.36257 | 34047 ft | 414 kts | 278° |
| 2026-05-01 14:23 | 51.54526 | -110.45466 | 34046 ft | 415 kts | 278° |
| 2026-05-01 14:23 | 51.55100 | -110.54701 | 34052 ft | 416 kts | 278° |
| 2026-05-01 14:24 | 51.55667 | -110.63967 | 34047 ft | 416 kts | 278° |
| 2026-05-01 14:24 | 51.56225 | -110.73187 | 34053 ft | 417 kts | 278° |
| 2026-05-01 14:25 | 51.56779 | -110.82496 | 34048 ft | 418 kts | 277° |
| 2026-05-01 14:25 | 51.57326 | -110.91809 | 34051 ft | 419 kts | 277° |
| 2026-05-01 14:26 | 51.58134 | -111.05774 | 34055 ft | 419 kts | 277° |
| 2026-05-01 14:27 | 51.58663 | -111.15095 | 34057 ft | 418 kts | 277° |
| 2026-05-01 14:27 | 51.59183 | -111.24392 | 34039 ft | 410 kts | 276° |
| 2026-05-01 14:28 | 51.59672 | -111.33295 | 33570 ft | 394 kts | 276° |
| 2026-05-01 14:28 | 51.59912 | -111.37677 | 33178 ft | 392 kts | 276° |
| 2026-05-01 14:28 | 51.60148 | -111.42018 | 32822 ft | 388 kts | 276° |
| 2026-05-01 14:28 | 51.60381 | -111.46330 | 32446 ft | 385 kts | 276° |
| 2026-05-01 14:29 | 51.60610 | -111.50605 | 32079 ft | 382 kts | 276° |
| 2026-05-01 14:29 | 51.60836 | -111.54853 | 31709 ft | 379 kts | 276° |
| 2026-05-01 14:30 | 51.61494 | -111.67404 | 30617 ft | 371 kts | 276° |
| 2026-05-01 14:30 | 51.61706 | -111.71520 | 30252 ft | 368 kts | 276° |
| 2026-05-01 14:30 | 51.61916 | -111.75612 | 29903 ft | 365 kts | 276° |
| 2026-05-01 14:31 | 51.62327 | -111.83688 | 29181 ft | 359 kts | 276° |
| 2026-05-01 14:31 | 51.62524 | -111.87628 | 28819 ft | 356 kts | 276° |
| 2026-05-01 14:31 | 51.62722 | -111.91585 | 28456 ft | 353 kts | 276° |
| 2026-05-01 14:31 | 51.62919 | -111.95521 | 28099 ft | 350 kts | 276° |
| 2026-05-01 14:32 | 51.63111 | -111.99407 | 27745 ft | 348 kts | 276° |
| 2026-05-01 14:32 | 51.63300 | -112.03276 | 27393 ft | 345 kts | 275° |
| 2026-05-01 14:32 | 51.63487 | -112.07118 | 27040 ft | 343 kts | 275° |
| 2026-05-01 14:32 | 51.63671 | -112.10924 | 26682 ft | 340 kts | 275° |
| 2026-05-01 14:33 | 51.63853 | -112.14706 | 26348 ft | 337 kts | 275° |
| 2026-05-01 14:33 | 51.64031 | -112.18448 | 26004 ft | 334 kts | 275° |
| 2026-05-01 14:33 | 51.64209 | -112.22171 | 25665 ft | 332 kts | 275° |
| 2026-05-01 14:33 | 51.64382 | -112.25857 | 25328 ft | 329 kts | 275° |
| 2026-05-01 14:34 | 51.64553 | -112.29524 | 24988 ft | 327 kts | 275° |
| 2026-05-01 14:34 | 51.64723 | -112.33160 | 24659 ft | 324 kts | 275° |
| 2026-05-01 14:34 | 51.64890 | -112.36779 | 24315 ft | 322 kts | 275° |
| 2026-05-01 14:34 | 51.65054 | -112.40365 | 23989 ft | 320 kts | 275° |
| 2026-05-01 14:35 | 51.65147 | -112.43936 | 23645 ft | 319 kts | 269° |
| 2026-05-01 14:35 | 51.64877 | -112.47472 | 23407 ft | 316 kts | 260° |
| 2026-05-01 14:35 | 51.64280 | -112.50802 | 23161 ft | 314 kts | 254° |
| 2026-05-01 14:35 | 51.63567 | -112.54111 | 22870 ft | 314 kts | 253° |
| 2026-05-01 14:36 | 51.62825 | -112.57464 | 22536 ft | 315 kts | 253° |
| 2026-05-01 14:36 | 51.62091 | -112.60776 | 22233 ft | 322 kts | 253° |
| 2026-05-01 14:36 | 51.61333 | -112.64214 | 21894 ft | 328 kts | 253° |
| 2026-05-01 14:36 | 51.60571 | -112.67678 | 21540 ft | 328 kts | 253° |
| 2026-05-01 14:37 | 51.59814 | -112.71125 | 21191 ft | 326 kts | 253° |
| 2026-05-01 14:37 | 51.59062 | -112.74554 | 20849 ft | 324 kts | 253° |
| 2026-05-01 14:37 | 51.58318 | -112.77951 | 20516 ft | 322 kts | 253° |
| 2026-05-01 14:37 | 51.57574 | -112.81343 | 20187 ft | 320 kts | 253° |
| 2026-05-01 14:38 | 51.56835 | -112.84708 | 19854 ft | 318 kts | 253° |
| 2026-05-01 14:38 | 51.56099 | -112.88059 | 19528 ft | 316 kts | 253° |
| 2026-05-01 14:38 | 51.55367 | -112.91388 | 19197 ft | 315 kts | 253° |
| 2026-05-01 14:38 | 51.54648 | -112.94652 | 18870 ft | 313 kts | 252° |
| 2026-05-01 14:39 | 51.53920 | -112.97952 | 18476 ft | 314 kts | 252° |
| 2026-05-01 14:39 | 51.53190 | -113.01255 | 18137 ft | 312 kts | 252° |
| 2026-05-01 14:39 | 51.52465 | -113.04532 | 17800 ft | 311 kts | 252° |
| 2026-05-01 14:39 | 51.51742 | -113.07798 | 17470 ft | 310 kts | 252° |
| 2026-05-01 14:40 | 51.51020 | -113.11051 | 17149 ft | 308 kts | 252° |
| 2026-05-01 14:40 | 51.50302 | -113.14284 | 16822 ft | 307 kts | 252° |
| 2026-05-01 14:40 | 51.49585 | -113.17506 | 16497 ft | 305 kts | 252° |
| 2026-05-01 14:40 | 51.48873 | -113.20701 | 16174 ft | 304 kts | 251° |
| 2026-05-01 14:41 | 51.48171 | -113.23842 | 15863 ft | 302 kts | 251° |
| 2026-05-01 14:41 | 51.47311 | -113.26903 | 15531 ft | 302 kts | 239° |
| 2026-05-01 14:41 | 51.46035 | -113.29588 | 15250 ft | 301 kts | 232° |
| 2026-05-01 14:41 | 51.44687 | -113.32156 | 14938 ft | 300 kts | 232° |
| 2026-05-01 14:42 | 51.43339 | -113.34702 | 14616 ft | 299 kts | 231° |
| 2026-05-01 14:42 | 51.41998 | -113.37245 | 14301 ft | 298 kts | 232° |
| 2026-05-01 14:42 | 51.40665 | -113.39785 | 13995 ft | 297 kts | 231° |
| 2026-05-01 14:42 | 51.39341 | -113.42314 | 13681 ft | 295 kts | 231° |
| 2026-05-01 14:43 | 51.38040 | -113.44801 | 13373 ft | 294 kts | 231° |
| 2026-05-01 14:43 | 51.36729 | -113.47308 | 13063 ft | 292 kts | 231° |
| 2026-05-01 14:43 | 51.35427 | -113.49804 | 12746 ft | 291 kts | 231° |
| 2026-05-01 14:43 | 51.34131 | -113.52283 | 12450 ft | 290 kts | 231° |
| 2026-05-01 14:44 | 51.32838 | -113.54757 | 12140 ft | 289 kts | 231° |
| 2026-05-01 14:44 | 51.30305 | -113.59595 | 11519 ft | 275 kts | 231° |
| 2026-05-01 14:44 | 51.29092 | -113.61907 | 11229 ft | 268 kts | 231° |
| 2026-05-01 14:45 | 51.27902 | -113.64174 | 10954 ft | 265 kts | 231° |
| 2026-05-01 14:45 | 51.25519 | -113.68718 | 10413 ft | 275 kts | 230° |
| 2026-05-01 14:45 | 51.24267 | -113.71105 | 10240 ft | 282 kts | 231° |
| 2026-05-01 14:46 | 51.23027 | -113.73469 | 10085 ft | 272 kts | 230° |
| 2026-05-01 14:46 | 51.20686 | -113.77919 | 9610 ft | 253 kts | 230° |
| 2026-05-01 14:46 | 51.19570 | -113.80035 | 9359 ft | 246 kts | 230° |
| 2026-05-01 14:47 | 51.18487 | -113.82092 | 9125 ft | 245 kts | 230° |
| 2026-05-01 14:47 | 51.17281 | -113.84011 | 8850 ft | 250 kts | 211° |
| 2026-05-01 14:47 | 51.15584 | -113.84881 | 8713 ft | 266 kts | 188° |
| 2026-05-01 14:48 | 51.11865 | -113.84904 | 8432 ft | 262 kts | 181° |
| 2026-05-01 14:48 | 51.10064 | -113.84874 | 8309 ft | 256 kts | 182° |
| 2026-05-01 14:48 | 51.06591 | -113.84745 | 8034 ft | 244 kts | 182° |
| 2026-05-01 14:49 | 51.03287 | -113.84836 | 7828 ft | 231 kts | 184° |
| 2026-05-01 14:49 | 51.00071 | -113.84818 | 7639 ft | 230 kts | 183° |
| 2026-05-01 14:50 | 50.97963 | -113.84856 | 7509 ft | 229 kts | 183° |
| 2026-05-01 14:50 | 50.93716 | -113.84931 | 7267 ft | 229 kts | 182° |
| 2026-05-01 14:51 | 50.92121 | -113.85015 | 7173 ft | 228 kts | 194° |
| 2026-05-01 14:51 | 50.90042 | -113.88296 | 6999 ft | 221 kts | 255° |
| 2026-05-01 14:52 | 50.90226 | -113.93128 | 6819 ft | 225 kts | 278° |
| 2026-05-01 14:52 | 50.90517 | -113.95585 | 6731 ft | 226 kts | 279° |
| 2026-05-01 14:52 | 50.91395 | -114.00328 | 6511 ft | 225 kts | 308° |
| 2026-05-01 14:53 | 50.92605 | -114.01783 | 6497 ft | 216 kts | 333° |
| 2026-05-01 14:53 | 50.94061 | -114.02283 | 6498 ft | 218 kts | 358° |
| 2026-05-01 14:53 | 50.95593 | -114.02123 | 6286 ft | 223 kts | 360° |
| 2026-05-01 14:53 | 50.97136 | -114.02084 | 5974 ft | 217 kts | 356° |
| 2026-05-01 14:54 | 50.98613 | -114.02122 | 5708 ft | 209 kts | 357° |
| 2026-05-01 14:54 | 51.00027 | -114.02136 | 5475 ft | 194 kts | 358° |
| 2026-05-01 14:54 | 51.01336 | -114.02137 | 5207 ft | 181 kts | 359° |
| 2026-05-01 14:54 | 51.02561 | -114.02134 | 4940 ft | 172 kts | 360° |
| 2026-05-01 14:55 | 51.03727 | -114.02132 | 4716 ft | 168 kts | 0° |
| 2026-05-01 14:55 | 51.04885 | -114.02134 | 4509 ft | 166 kts | 0° |
| 2026-05-01 14:55 | 51.06042 | -114.02134 | 4292 ft | 166 kts | 1° |
| 2026-05-01 14:55 | 51.07192 | -114.02134 | 4070 ft | 164 kts | 1° |
| 2026-05-01 14:56 | 51.08334 | -114.02134 | 3860 ft | 163 kts | 1° |
| 2026-05-01 14:56 | 51.09468 | -114.02134 | 3631 ft | 163 kts | 0° |
| 2026-05-01 14:56 | 51.10564 | -114.02123 | 3558 ft | 148 kts | 1° |
| 2026-05-01 14:56 | 51.11483 | -114.02125 | 3555 ft | 115 kts | 0° |
| 2026-05-01 14:57 | 51.12163 | -114.02114 | 3561 ft | 80 kts | 1° |
| 2026-05-01 14:57 | 51.12726 | -114.02072 | 3552 ft | 0 kts | 23° |
| 2026-05-01 14:58 | 51.12729 | -114.02070 | 3557 ft | 5 kts | 23° |
| 2026-05-01 14:58 | 51.12816 | -114.02009 | 3556 ft | 20 kts | 25° |
| 2026-05-01 14:58 | 51.12903 | -114.01855 | 3556 ft | 19 kts | 53° |
| 2026-05-01 14:59 | 51.13025 | -114.01798 | 3557 ft | 19 kts | 358° |
| 2026-05-01 14:59 | 51.13105 | -114.01838 | 3558 ft | 18 kts | 338° |
| 2026-05-01 14:59 | 51.13227 | -114.01855 | 3557 ft | 17 kts | 0° |
| 2026-05-01 14:59 | 51.13339 | -114.01814 | 3558 ft | 17 kts | 48° |
| 2026-05-01 15:00 | 51.13428 | -114.01486 | 3558 ft | 13 kts | 85° |
| 2026-05-01 15:00 | 51.13411 | -114.01403 | 3555 ft | 9 kts | 165° |
| 2026-05-01 15:00 | 51.13353 | -114.01408 | 3555 ft | 8 kts | 180° |
| 2026-05-01 15:01 | 51.13333 | -114.01408 | 3558 ft | 0 kts | 180° |
| 2026-05-01 15:01 | 51.13330 | -114.01408 | 3558 ft | 0 kts | 180° |